sensor_id;sensor_type;location;lat;lon;timestamp;P1;durP1;ratioP1;P2;durP2;ratioP2
56285;SDS011;42191;47.562;9.686;2022-08-21T00:01:44;31.25;;;29.35;;
56285;SDS011;42191;47.562;9.686;2022-08-21T00:04:11;30.38;;;28.42;;
56285;SDS011;42191;47.562;9.686;2022-08-21T00:06:38;30.15;;;28.05;;
56285;SDS011;42191;47.562;9.686;2022-08-21T00:09:05;29.95;;;28.15;;
56285;SDS011;42191;47.562;9.686;2022-08-21T00:11:33;30.45;;;28.65;;
56285;SDS011;42191;47.562;9.686;2022-08-21T00:14:02;31.38;;;29.48;;
56285;SDS011;42191;47.562;9.686;2022-08-21T00:16:29;30.30;;;28.50;;
56285;SDS011;42191;47.562;9.686;2022-08-21T00:18:55;29.80;;;28.10;;
56285;SDS011;42191;47.562;9.686;2022-08-21T00:21:21;30.92;;;28.88;;
56285;SDS011;42191;47.562;9.686;2022-08-21T00:23:47;30.25;;;28.45;;
56285;SDS011;42191;47.562;9.686;2022-08-21T00:26:14;29.42;;;27.73;;
56285;SDS011;42191;47.562;9.686;2022-08-21T00:28:40;30.63;;;28.73;;
56285;SDS011;42191;47.562;9.686;2022-08-21T00:31:06;30.35;;;28.55;;
56285;SDS011;42191;47.562;9.686;2022-08-21T00:33:32;27.95;;;26.35;;
56285;SDS011;42191;47.562;9.686;2022-08-21T00:35:58;29.85;;;28.05;;
56285;SDS011;42191;47.562;9.686;2022-08-21T00:38:25;29.38;;;27.67;;
56285;SDS011;42191;47.562;9.686;2022-08-21T00:40:53;30.90;;;29.10;;
56285;SDS011;42191;47.562;9.686;2022-08-21T00:43:23;30.17;;;28.40;;
56285;SDS011;42191;47.562;9.686;2022-08-21T00:45:52;30.80;;;29.00;;
56285;SDS011;42191;47.562;9.686;2022-08-21T00:48:20;30.70;;;28.88;;
56285;SDS011;42191;47.562;9.686;2022-08-21T00:51:01;30.17;;;28.38;;
56285;SDS011;42191;47.562;9.686;2022-08-21T00:53:31;29.35;;;27.65;;
56285;SDS011;42191;47.562;9.686;2022-08-21T00:56:00;30.67;;;28.88;;
56285;SDS011;42191;47.562;9.686;2022-08-21T00:58:28;30.08;;;28.27;;
56285;SDS011;42191;47.562;9.686;2022-08-21T01:00:56;29.13;;;27.42;;
56285;SDS011;42191;47.562;9.686;2022-08-21T01:03:24;31.08;;;29.25;;
56285;SDS011;42191;47.562;9.686;2022-08-21T01:05:51;30.40;;;28.52;;
56285;SDS011;42191;47.562;9.686;2022-08-21T01:08:17;29.77;;;27.98;;
56285;SDS011;42191;47.562;9.686;2022-08-21T01:10:44;30.42;;;28.63;;
56285;SDS011;42191;47.562;9.686;2022-08-21T01:13:13;31.35;;;29.45;;
56285;SDS011;42191;47.562;9.686;2022-08-21T01:15:42;29.58;;;27.67;;
56285;SDS011;42191;47.562;9.686;2022-08-21T01:18:11;30.75;;;28.85;;
56285;SDS011;42191;47.562;9.686;2022-08-21T01:20:38;30.42;;;28.63;;
56285;SDS011;42191;47.562;9.686;2022-08-21T01:23:07;30.35;;;28.52;;
56285;SDS011;42191;47.562;9.686;2022-08-21T01:25:34;29.95;;;28.15;;
56285;SDS011;42191;47.562;9.686;2022-08-21T01:28:06;30.75;;;28.95;;
56285;SDS011;42191;47.562;9.686;2022-08-21T01:30:38;28.92;;;27.23;;
56285;SDS011;42191;47.562;9.686;2022-08-21T01:33:06;28.85;;;27.15;;
56285;SDS011;42191;47.562;9.686;2022-08-21T01:35:33;30.08;;;28.35;;
56285;SDS011;42191;47.562;9.686;2022-08-21T01:37:59;29.95;;;28.15;;
56285;SDS011;42191;47.562;9.686;2022-08-21T01:40:25;29.65;;;27.75;;
56285;SDS011;42191;47.562;9.686;2022-08-21T01:42:51;29.25;;;27.55;;
56285;SDS011;42191;47.562;9.686;2022-08-21T01:45:18;27.95;;;26.15;;
56285;SDS011;42191;47.562;9.686;2022-08-21T01:47:44;30.70;;;28.70;;
56285;SDS011;42191;47.562;9.686;2022-08-21T01:50:16;29.60;;;27.85;;
56285;SDS011;42191;47.562;9.686;2022-08-21T01:52:43;29.50;;;27.70;;
56285;SDS011;42191;47.562;9.686;2022-08-21T01:55:10;29.65;;;27.92;;
56285;SDS011;42191;47.562;9.686;2022-08-21T01:57:37;29.77;;;27.88;;
56285;SDS011;42191;47.562;9.686;2022-08-21T02:00:05;30.85;;;29.05;;
56285;SDS011;42191;47.562;9.686;2022-08-21T02:02:35;30.60;;;28.80;;
56285;SDS011;42191;47.562;9.686;2022-08-21T02:05:02;28.98;;;27.25;;
56285;SDS011;42191;47.562;9.686;2022-08-21T02:07:37;29.50;;;27.70;;
56285;SDS011;42191;47.562;9.686;2022-08-21T02:10:06;29.45;;;27.75;;
56285;SDS011;42191;47.562;9.686;2022-08-21T02:12:33;28.90;;;27.20;;
56285;SDS011;42191;47.562;9.686;2022-08-21T02:14:59;29.95;;;28.15;;
56285;SDS011;42191;47.562;9.686;2022-08-21T02:17:25;31.00;;;29.20;;
56285;SDS011;42191;47.562;9.686;2022-08-21T02:19:52;29.38;;;27.67;;
56285;SDS011;42191;47.562;9.686;2022-08-21T02:22:18;30.55;;;28.75;;
56285;SDS011;42191;47.562;9.686;2022-08-21T02:24:44;31.10;;;29.20;;
56285;SDS011;42191;47.562;9.686;2022-08-21T02:27:10;28.58;;;26.90;;
56285;SDS011;42191;47.562;9.686;2022-08-21T02:29:36;30.30;;;28.50;;
56285;SDS011;42191;47.562;9.686;2022-08-21T02:32:02;30.30;;;28.50;;
56285;SDS011;42191;47.562;9.686;2022-08-21T02:34:28;30.65;;;28.85;;
56285;SDS011;42191;47.562;9.686;2022-08-21T02:36:54;29.42;;;27.73;;
56285;SDS011;42191;47.562;9.686;2022-08-21T02:39:20;29.08;;;27.38;;
56285;SDS011;42191;47.562;9.686;2022-08-21T02:41:47;29.67;;;27.88;;
56285;SDS011;42191;47.562;9.686;2022-08-21T02:44:13;30.70;;;28.80;;
56285;SDS011;42191;47.562;9.686;2022-08-21T02:46:39;28.88;;;27.17;;
56285;SDS011;42191;47.562;9.686;2022-08-21T02:49:05;30.70;;;28.90;;
56285;SDS011;42191;47.562;9.686;2022-08-21T02:51:31;30.65;;;28.85;;
56285;SDS011;42191;47.562;9.686;2022-08-21T02:53:57;31.00;;;29.10;;
56285;SDS011;42191;47.562;9.686;2022-08-21T02:56:23;30.75;;;28.83;;
56285;SDS011;42191;47.562;9.686;2022-08-21T02:58:50;29.33;;;27.63;;
56285;SDS011;42191;47.562;9.686;2022-08-21T03:01:18;28.88;;;27.05;;
56285;SDS011;42191;47.562;9.686;2022-08-21T03:03:45;30.60;;;28.80;;
56285;SDS011;42191;47.562;9.686;2022-08-21T03:06:15;29.30;;;27.60;;
56285;SDS011;42191;47.562;9.686;2022-08-21T03:08:42;28.75;;;27.05;;
56285;SDS011;42191;47.562;9.686;2022-08-21T03:11:10;30.65;;;28.83;;
56285;SDS011;42191;47.562;9.686;2022-08-21T03:13:37;29.00;;;27.20;;
56285;SDS011;42191;47.562;9.686;2022-08-21T03:16:03;29.27;;;27.58;;
56285;SDS011;42191;47.562;9.686;2022-08-21T03:18:31;30.85;;;28.63;;
56285;SDS011;42191;47.562;9.686;2022-08-21T03:20:57;29.98;;;28.27;;
56285;SDS011;42191;47.562;9.686;2022-08-21T03:23:23;30.40;;;28.60;;
56285;SDS011;42191;47.562;9.686;2022-08-21T03:25:49;30.63;;;28.83;;
56285;SDS011;42191;47.562;9.686;2022-08-21T03:28:17;29.65;;;27.95;;
56285;SDS011;42191;47.562;9.686;2022-08-21T03:30:46;29.83;;;28.02;;
56285;SDS011;42191;47.562;9.686;2022-08-21T03:33:13;29.42;;;27.73;;
56285;SDS011;42191;47.562;9.686;2022-08-21T03:35:40;29.60;;;27.80;;
56285;SDS011;42191;47.562;9.686;2022-08-21T03:38:11;31.83;;;29.95;;
56285;SDS011;42191;47.562;9.686;2022-08-21T03:40:38;30.58;;;28.77;;
56285;SDS011;42191;47.562;9.686;2022-08-21T03:43:05;29.27;;;27.58;;
56285;SDS011;42191;47.562;9.686;2022-08-21T03:45:33;29.80;;;28.00;;
56285;SDS011;42191;47.562;9.686;2022-08-21T03:48:01;31.17;;;29.33;;
56285;SDS011;42191;47.562;9.686;2022-08-21T03:50:29;30.75;;;28.95;;
56285;SDS011;42191;47.562;9.686;2022-08-21T03:52:59;30.23;;;28.23;;
56285;SDS011;42191;47.562;9.686;2022-08-21T03:55:25;29.83;;;28.10;;
56285;SDS011;42191;47.562;9.686;2022-08-21T03:57:52;29.80;;;28.10;;
56285;SDS011;42191;47.562;9.686;2022-08-21T04:00:18;30.35;;;28.55;;
56285;SDS011;42191;47.562;9.686;2022-08-21T04:02:45;28.35;;;26.65;;
56285;SDS011;42191;47.562;9.686;2022-08-21T04:05:12;29.65;;;27.85;;
56285;SDS011;42191;47.562;9.686;2022-08-21T04:07:52;30.33;;;28.48;;
56285;SDS011;42191;47.562;9.686;2022-08-21T04:10:23;29.35;;;27.65;;
56285;SDS011;42191;47.562;9.686;2022-08-21T04:12:50;31.63;;;29.75;;
56285;SDS011;42191;47.562;9.686;2022-08-21T04:15:17;30.48;;;28.67;;
56285;SDS011;42191;47.562;9.686;2022-08-21T04:17:43;29.08;;;27.38;;
56285;SDS011;42191;47.562;9.686;2022-08-21T04:20:09;30.55;;;28.75;;
56285;SDS011;42191;47.562;9.686;2022-08-21T04:22:35;30.85;;;29.05;;
56285;SDS011;42191;47.562;9.686;2022-08-21T04:25:01;29.40;;;27.70;;
56285;SDS011;42191;47.562;9.686;2022-08-21T04:27:28;29.73;;;28.02;;
56285;SDS011;42191;47.562;9.686;2022-08-21T04:29:54;30.35;;;28.55;;
56285;SDS011;42191;47.562;9.686;2022-08-21T04:32:23;31.30;;;29.40;;
56285;SDS011;42191;47.562;9.686;2022-08-21T04:34:50;32.50;;;30.50;;
56285;SDS011;42191;47.562;9.686;2022-08-21T04:37:23;28.65;;;26.95;;
56285;SDS011;42191;47.562;9.686;2022-08-21T04:39:49;30.65;;;28.85;;
56285;SDS011;42191;47.562;9.686;2022-08-21T04:42:16;29.77;;;27.95;;
56285;SDS011;42191;47.562;9.686;2022-08-21T04:44:42;30.23;;;28.35;;
56285;SDS011;42191;47.562;9.686;2022-08-21T04:47:08;30.52;;;28.73;;
56285;SDS011;42191;47.562;9.686;2022-08-21T04:49:34;29.98;;;28.17;;
56285;SDS011;42191;47.562;9.686;2022-08-21T04:52:00;30.98;;;29.10;;
56285;SDS011;42191;47.562;9.686;2022-08-21T04:54:27;31.15;;;29.35;;
56285;SDS011;42191;47.562;9.686;2022-08-21T04:56:55;28.95;;;27.25;;
56285;SDS011;42191;47.562;9.686;2022-08-21T04:59:28;30.30;;;28.35;;
56285;SDS011;42191;47.562;9.686;2022-08-21T05:01:58;33.08;;;30.98;;
56285;SDS011;42191;47.562;9.686;2022-08-21T05:04:27;29.05;;;27.35;;
56285;SDS011;42191;47.562;9.686;2022-08-21T05:06:56;29.63;;;27.83;;
56285;SDS011;42191;47.562;9.686;2022-08-21T05:09:25;30.60;;;28.73;;
56285;SDS011;42191;47.562;9.686;2022-08-21T05:11:53;31.15;;;29.35;;
56285;SDS011;42191;47.562;9.686;2022-08-21T05:14:20;29.33;;;27.52;;
56285;SDS011;42191;47.562;9.686;2022-08-21T05:16:46;29.65;;;27.95;;
56285;SDS011;42191;47.562;9.686;2022-08-21T05:19:12;29.50;;;27.80;;
56285;SDS011;42191;47.562;9.686;2022-08-21T05:21:42;29.33;;;27.63;;
56285;SDS011;42191;47.562;9.686;2022-08-21T05:24:10;29.80;;;28.05;;
56285;SDS011;42191;47.562;9.686;2022-08-21T05:26:36;30.35;;;28.55;;
56285;SDS011;42191;47.562;9.686;2022-08-21T05:29:03;31.30;;;29.30;;
56285;SDS011;42191;47.562;9.686;2022-08-21T05:31:30;31.33;;;29.42;;
56285;SDS011;42191;47.562;9.686;2022-08-21T05:33:56;31.48;;;29.65;;
56285;SDS011;42191;47.562;9.686;2022-08-21T05:36:22;29.20;;;27.33;;
56285;SDS011;42191;47.562;9.686;2022-08-21T05:38:48;28.25;;;26.55;;
56285;SDS011;42191;47.562;9.686;2022-08-21T05:41:15;30.23;;;28.38;;
56285;SDS011;42191;47.562;9.686;2022-08-21T05:43:41;30.52;;;28.70;;
56285;SDS011;42191;47.562;9.686;2022-08-21T05:46:07;28.83;;;27.13;;
56285;SDS011;42191;47.562;9.686;2022-08-21T05:48:34;31.20;;;29.40;;
56285;SDS011;42191;47.562;9.686;2022-08-21T05:51:09;29.23;;;27.52;;
56285;SDS011;42191;47.562;9.686;2022-08-21T05:53:37;30.05;;;28.25;;
56285;SDS011;42191;47.562;9.686;2022-08-21T05:56:04;30.73;;;28.90;;
56285;SDS011;42191;47.562;9.686;2022-08-21T05:58:32;30.08;;;28.23;;
56285;SDS011;42191;47.562;9.686;2022-08-21T06:01:00;28.50;;;26.83;;
56285;SDS011;42191;47.562;9.686;2022-08-21T06:03:30;29.30;;;27.58;;
56285;SDS011;42191;47.562;9.686;2022-08-21T06:05:58;29.15;;;27.45;;
56285;SDS011;42191;47.562;9.686;2022-08-21T06:08:25;30.75;;;28.75;;
56285;SDS011;42191;47.562;9.686;2022-08-21T06:10:52;29.33;;;27.63;;
56285;SDS011;42191;47.562;9.686;2022-08-21T06:13:21;29.20;;;27.45;;
56285;SDS011;42191;47.562;9.686;2022-08-21T06:15:47;29.10;;;27.40;;
56285;SDS011;42191;47.562;9.686;2022-08-21T06:18:14;28.08;;;26.48;;
56285;SDS011;42191;47.562;9.686;2022-08-21T06:20:40;29.77;;;27.98;;
56285;SDS011;42191;47.562;9.686;2022-08-21T06:23:07;27.02;;;25.42;;
56285;SDS011;42191;47.562;9.686;2022-08-21T06:25:33;30.27;;;28.50;;
56285;SDS011;42191;47.562;9.686;2022-08-21T06:28:01;30.20;;;28.25;;
56285;SDS011;42191;47.562;9.686;2022-08-21T06:30:29;29.73;;;28.02;;
56285;SDS011;42191;47.562;9.686;2022-08-21T06:32:55;28.88;;;27.17;;
56285;SDS011;42191;47.562;9.686;2022-08-21T06:35:22;28.45;;;26.75;;
56285;SDS011;42191;47.562;9.686;2022-08-21T06:37:49;29.75;;;28.05;;
56285;SDS011;42191;47.562;9.686;2022-08-21T06:40:16;29.25;;;27.55;;
56285;SDS011;42191;47.562;9.686;2022-08-21T06:42:42;28.75;;;27.08;;
56285;SDS011;42191;47.562;9.686;2022-08-21T06:45:08;27.55;;;25.95;;
56285;SDS011;42191;47.562;9.686;2022-08-21T06:47:35;30.23;;;28.33;;
56285;SDS011;42191;47.562;9.686;2022-08-21T06:50:01;28.75;;;27.05;;
56285;SDS011;42191;47.562;9.686;2022-08-21T06:52:28;30.08;;;28.27;;
56285;SDS011;42191;47.562;9.686;2022-08-21T06:54:54;29.83;;;28.02;;
56285;SDS011;42191;47.562;9.686;2022-08-21T06:57:20;28.48;;;26.88;;
56285;SDS011;42191;47.562;9.686;2022-08-21T06:59:46;30.58;;;28.55;;
56285;SDS011;42191;47.562;9.686;2022-08-21T07:02:12;28.13;;;26.48;;
56285;SDS011;42191;47.562;9.686;2022-08-21T07:04:39;30.30;;;28.50;;
56285;SDS011;42191;47.562;9.686;2022-08-21T07:07:05;29.63;;;27.83;;
56285;SDS011;42191;47.562;9.686;2022-08-21T07:09:31;28.48;;;26.67;;
56285;SDS011;42191;47.562;9.686;2022-08-21T07:11:57;28.63;;;26.92;;
56285;SDS011;42191;47.562;9.686;2022-08-21T07:14:24;29.38;;;27.50;;
56285;SDS011;42191;47.562;9.686;2022-08-21T07:16:50;28.42;;;26.73;;
56285;SDS011;42191;47.562;9.686;2022-08-21T07:19:16;29.92;;;28.13;;
56285;SDS011;42191;47.562;9.686;2022-08-21T07:21:43;29.35;;;27.27;;
56285;SDS011;42191;47.562;9.686;2022-08-21T07:24:09;29.67;;;27.92;;
56285;SDS011;42191;47.562;9.686;2022-08-21T07:26:36;28.90;;;27.15;;
56285;SDS011;42191;47.562;9.686;2022-08-21T07:29:02;27.73;;;26.13;;
56285;SDS011;42191;47.562;9.686;2022-08-21T07:31:29;29.77;;;28.08;;
56285;SDS011;42191;47.562;9.686;2022-08-21T07:33:55;30.00;;;28.10;;
56285;SDS011;42191;47.562;9.686;2022-08-21T07:36:22;29.17;;;27.48;;
56285;SDS011;42191;47.562;9.686;2022-08-21T07:38:48;29.35;;;27.63;;
56285;SDS011;42191;47.562;9.686;2022-08-21T07:41:18;28.75;;;27.05;;
56285;SDS011;42191;47.562;9.686;2022-08-21T07:43:47;27.85;;;26.25;;
56285;SDS011;42191;47.562;9.686;2022-08-21T07:46:14;28.33;;;26.63;;
56285;SDS011;42191;47.562;9.686;2022-08-21T07:48:40;29.45;;;27.75;;
56285;SDS011;42191;47.562;9.686;2022-08-21T07:51:09;28.13;;;26.52;;
56285;SDS011;42191;47.562;9.686;2022-08-21T07:53:37;30.02;;;28.23;;
56285;SDS011;42191;47.562;9.686;2022-08-21T07:56:04;29.33;;;27.52;;
56285;SDS011;42191;47.562;9.686;2022-08-21T07:58:31;30.08;;;28.27;;
56285;SDS011;42191;47.562;9.686;2022-08-21T08:00:57;29.42;;;27.73;;
56285;SDS011;42191;47.562;9.686;2022-08-21T08:03:23;28.05;;;26.35;;
56285;SDS011;42191;47.562;9.686;2022-08-21T08:05:50;30.77;;;28.98;;
56285;SDS011;42191;47.562;9.686;2022-08-21T08:08:16;29.10;;;27.20;;
56285;SDS011;42191;47.562;9.686;2022-08-21T08:10:42;27.92;;;26.30;;
56285;SDS011;42191;47.562;9.686;2022-08-21T08:13:09;29.35;;;27.65;;
56285;SDS011;42191;47.562;9.686;2022-08-21T08:15:35;28.08;;;26.38;;
56285;SDS011;42191;47.562;9.686;2022-08-21T08:18:02;28.55;;;26.90;;
56285;SDS011;42191;47.562;9.686;2022-08-21T08:20:28;28.13;;;26.42;;
56285;SDS011;42191;47.562;9.686;2022-08-21T08:22:54;29.20;;;27.50;;
56285;SDS011;42191;47.562;9.686;2022-08-21T08:25:21;27.95;;;26.35;;
56285;SDS011;42191;47.562;9.686;2022-08-21T08:27:49;28.15;;;26.45;;
56285;SDS011;42191;47.562;9.686;2022-08-21T08:30:16;27.75;;;26.15;;
56285;SDS011;42191;47.562;9.686;2022-08-21T08:32:43;28.33;;;26.63;;
56285;SDS011;42191;47.562;9.686;2022-08-21T08:35:10;28.52;;;26.85;;
56285;SDS011;42191;47.562;9.686;2022-08-21T08:37:37;27.40;;;25.60;;
56285;SDS011;42191;47.562;9.686;2022-08-21T08:40:06;28.00;;;26.40;;
56285;SDS011;42191;47.562;9.686;2022-08-21T08:42:42;27.65;;;26.05;;
56285;SDS011;42191;47.562;9.686;2022-08-21T08:45:10;28.05;;;26.35;;
56285;SDS011;42191;47.562;9.686;2022-08-21T08:47:40;28.85;;;27.15;;
56285;SDS011;42191;47.562;9.686;2022-08-21T08:50:19;28.67;;;26.98;;
56285;SDS011;42191;47.562;9.686;2022-08-21T08:53:06;28.40;;;26.70;;
56285;SDS011;42191;47.562;9.686;2022-08-21T08:55:54;27.50;;;25.80;;
56285;SDS011;42191;47.562;9.686;2022-08-21T09:00:52;30.30;;;28.50;;
56285;SDS011;42191;47.562;9.686;2022-08-21T09:03:20;28.52;;;26.77;;
56285;SDS011;42191;47.562;9.686;2022-08-21T09:05:50;28.70;;;27.00;;
56285;SDS011;42191;47.562;9.686;2022-08-21T09:08:39;25.80;;;24.30;;
56285;SDS011;42191;47.562;9.686;2022-08-21T09:27:39;29.23;;;27.52;;
56285;SDS011;42191;47.562;9.686;2022-08-21T09:30:06;27.73;;;26.13;;
56285;SDS011;42191;47.562;9.686;2022-08-21T09:32:35;30.05;;;28.27;;
56285;SDS011;42191;47.562;9.686;2022-08-21T09:35:12;28.50;;;26.80;;
56285;SDS011;42191;47.562;9.686;2022-08-21T09:43:10;29.80;;;27.80;;
56285;SDS011;42191;47.562;9.686;2022-08-21T09:45:44;29.27;;;27.50;;
56285;SDS011;42191;47.562;9.686;2022-08-21T09:48:21;28.27;;;26.58;;
56285;SDS011;42191;47.562;9.686;2022-08-21T09:50:49;27.80;;;26.20;;
56285;SDS011;42191;47.562;9.686;2022-08-21T09:53:21;28.95;;;26.98;;
56285;SDS011;42191;47.562;9.686;2022-08-21T09:55:49;27.55;;;25.90;;
56285;SDS011;42191;47.562;9.686;2022-08-21T09:58:40;28.65;;;26.95;;
56285;SDS011;42191;47.562;9.686;2022-08-21T10:01:16;28.55;;;26.85;;
56285;SDS011;42191;47.562;9.686;2022-08-21T10:03:45;28.60;;;26.75;;
56285;SDS011;42191;47.562;9.686;2022-08-21T10:06:22;29.20;;;27.30;;
56285;SDS011;42191;47.562;9.686;2022-08-21T10:08:51;27.90;;;26.30;;
56285;SDS011;42191;47.562;9.686;2022-08-21T10:11:34;27.08;;;25.48;;
56285;SDS011;42191;47.562;9.686;2022-08-21T10:14:07;27.58;;;25.67;;
56285;SDS011;42191;47.562;9.686;2022-08-21T10:16:42;26.98;;;25.38;;
56285;SDS011;42191;47.562;9.686;2022-08-21T10:19:30;28.02;;;26.13;;
56285;SDS011;42191;47.562;9.686;2022-08-21T10:25:25;27.55;;;25.95;;
56285;SDS011;42191;47.562;9.686;2022-08-21T10:30:30;26.73;;;25.13;;
56285;SDS011;42191;47.562;9.686;2022-08-21T10:33:03;27.58;;;25.88;;
56285;SDS011;42191;47.562;9.686;2022-08-21T10:35:38;27.10;;;25.50;;
56285;SDS011;42191;47.562;9.686;2022-08-21T10:38:34;27.95;;;26.25;;
56285;SDS011;42191;47.562;9.686;2022-08-21T10:41:11;27.98;;;26.27;;
56285;SDS011;42191;47.562;9.686;2022-08-21T10:46:53;27.27;;;25.52;;
56285;SDS011;42191;47.562;9.686;2022-08-21T10:52:02;27.50;;;25.80;;
56285;SDS011;42191;47.562;9.686;2022-08-21T10:57:50;28.90;;;27.20;;
56285;SDS011;42191;47.562;9.686;2022-08-21T11:00:22;28.67;;;26.73;;
56285;SDS011;42191;47.562;9.686;2022-08-21T11:02:55;27.07;;;25.47;;
56285;SDS011;42191;47.562;9.686;2022-08-21T11:08:02;27.40;;;25.70;;
56285;SDS011;42191;47.562;9.686;2022-08-21T11:10:45;27.27;;;25.65;;
56285;SDS011;42191;47.562;9.686;2022-08-21T11:13:17;26.58;;;24.98;;
56285;SDS011;42191;47.562;9.686;2022-08-21T11:16:02;27.95;;;26.25;;
56285;SDS011;42191;47.562;9.686;2022-08-21T11:18:39;26.77;;;25.17;;
56285;SDS011;42191;47.562;9.686;2022-08-21T11:27:17;26.38;;;24.67;;
56285;SDS011;42191;47.562;9.686;2022-08-21T11:29:40;26.90;;;25.30;;
56285;SDS011;42191;47.562;9.686;2022-08-21T11:39:52;28.98;;;27.27;;
56285;SDS011;42191;47.562;9.686;2022-08-21T11:45:54;27.92;;;26.23;;
56285;SDS011;42191;47.562;9.686;2022-08-21T11:50:40;26.15;;;24.55;;
56285;SDS011;42191;47.562;9.686;2022-08-21T11:55:47;26.55;;;24.85;;
56285;SDS011;42191;47.562;9.686;2022-08-21T11:58:31;26.88;;;25.27;;
56285;SDS011;42191;47.562;9.686;2022-08-21T12:01:05;26.65;;;25.05;;
56285;SDS011;42191;47.562;9.686;2022-08-21T12:03:34;26.45;;;24.60;;
56285;SDS011;42191;47.562;9.686;2022-08-21T12:06:07;26.90;;;25.20;;
56285;SDS011;42191;47.562;9.686;2022-08-21T12:11:10;27.08;;;25.48;;
56285;SDS011;42191;47.562;9.686;2022-08-21T12:14:00;26.27;;;24.73;;
56285;SDS011;42191;47.562;9.686;2022-08-21T12:16:30;26.15;;;24.45;;
56285;SDS011;42191;47.562;9.686;2022-08-21T12:19:16;27.20;;;25.50;;
56285;SDS011;42191;47.562;9.686;2022-08-21T12:26:56;26.77;;;24.77;;
56285;SDS011;42191;47.562;9.686;2022-08-21T12:29:31;27.20;;;25.40;;
56285;SDS011;42191;47.562;9.686;2022-08-21T12:34:52;27.02;;;25.40;;
56285;SDS011;42191;47.562;9.686;2022-08-21T12:40:26;27.05;;;25.35;;
56285;SDS011;42191;47.562;9.686;2022-08-21T12:43:18;26.67;;;24.92;;
56285;SDS011;42191;47.562;9.686;2022-08-21T12:45:50;26.40;;;24.80;;
56285;SDS011;42191;47.562;9.686;2022-08-21T12:48:22;25.55;;;23.77;;
56285;SDS011;42191;47.562;9.686;2022-08-21T12:51:22;27.30;;;25.60;;
56285;SDS011;42191;47.562;9.686;2022-08-21T12:54:06;27.10;;;25.50;;
56285;SDS011;42191;47.562;9.686;2022-08-21T12:56:32;26.85;;;25.25;;
56285;SDS011;42191;47.562;9.686;2022-08-21T12:59:04;26.73;;;25.08;;
56285;SDS011;42191;47.562;9.686;2022-08-21T13:04:02;25.90;;;24.30;;
56285;SDS011;42191;47.562;9.686;2022-08-21T13:06:37;25.77;;;24.27;;
56285;SDS011;42191;47.562;9.686;2022-08-21T13:09:06;26.38;;;24.85;;
56285;SDS011;42191;47.562;9.686;2022-08-21T13:11:35;26.65;;;25.05;;
56285;SDS011;42191;47.562;9.686;2022-08-21T13:14:03;25.20;;;23.67;;
56285;SDS011;42191;47.562;9.686;2022-08-21T13:16:34;27.08;;;25.27;;
56285;SDS011;42191;47.562;9.686;2022-08-21T13:19:02;25.58;;;23.98;;
56285;SDS011;42191;47.562;9.686;2022-08-21T13:21:31;27.23;;;25.52;;
56285;SDS011;42191;47.562;9.686;2022-08-21T13:24:07;25.25;;;23.75;;
56285;SDS011;42191;47.562;9.686;2022-08-21T13:26:42;25.38;;;23.70;;
56285;SDS011;42191;47.562;9.686;2022-08-21T13:29:09;24.35;;;22.73;;
56285;SDS011;42191;47.562;9.686;2022-08-21T13:31:37;23.95;;;22.35;;
56285;SDS011;42191;47.562;9.686;2022-08-21T13:34:07;22.98;;;21.58;;
56285;SDS011;42191;47.562;9.686;2022-08-21T13:36:36;22.58;;;21.17;;
56285;SDS011;42191;47.562;9.686;2022-08-21T13:39:09;21.63;;;20.17;;
56285;SDS011;42191;47.562;9.686;2022-08-21T13:41:38;21.20;;;19.95;;
56285;SDS011;42191;47.562;9.686;2022-08-21T13:44:17;21.50;;;19.77;;
56285;SDS011;42191;47.562;9.686;2022-08-21T13:46:43;21.42;;;20.10;;
56285;SDS011;42191;47.562;9.686;2022-08-21T13:49:12;20.55;;;19.15;;
56285;SDS011;42191;47.562;9.686;2022-08-21T13:51:40;19.70;;;18.42;;
56285;SDS011;42191;47.562;9.686;2022-08-21T13:54:14;20.50;;;19.30;;
56285;SDS011;42191;47.562;9.686;2022-08-21T13:56:42;20.17;;;18.88;;
56285;SDS011;42191;47.562;9.686;2022-08-21T13:59:10;20.50;;;19.20;;
56285;SDS011;42191;47.562;9.686;2022-08-21T14:01:48;20.33;;;19.02;;
56285;SDS011;42191;47.562;9.686;2022-08-21T14:04:38;20.45;;;18.95;;
56285;SDS011;42191;47.562;9.686;2022-08-21T14:07:20;21.25;;;19.92;;
56285;SDS011;42191;47.562;9.686;2022-08-21T14:09:52;20.17;;;18.98;;
56285;SDS011;42191;47.562;9.686;2022-08-21T14:12:24;21.05;;;19.55;;
56285;SDS011;42191;47.562;9.686;2022-08-21T14:14:57;20.92;;;19.63;;
56285;SDS011;42191;47.562;9.686;2022-08-21T14:17:36;20.83;;;19.52;;
56285;SDS011;42191;47.562;9.686;2022-08-21T14:20:07;21.50;;;19.50;;
56285;SDS011;42191;47.562;9.686;2022-08-21T14:22:56;21.10;;;19.60;;
56285;SDS011;42191;47.562;9.686;2022-08-21T14:30:21;21.75;;;20.45;;
56285;SDS011;42191;47.562;9.686;2022-08-21T14:32:55;21.00;;;19.70;;
56285;SDS011;42191;47.562;9.686;2022-08-21T14:35:22;21.20;;;19.90;;
56285;SDS011;42191;47.562;9.686;2022-08-21T14:37:49;21.60;;;20.30;;
56285;SDS011;42191;47.562;9.686;2022-08-21T14:40:16;21.08;;;19.88;;
56285;SDS011;42191;47.562;9.686;2022-08-21T14:42:44;20.98;;;19.67;;
56285;SDS011;42191;47.562;9.686;2022-08-21T14:45:15;20.45;;;19.17;;
56285;SDS011;42191;47.562;9.686;2022-08-21T14:47:50;20.73;;;19.50;;
56285;SDS011;42191;47.562;9.686;2022-08-21T14:50:16;21.02;;;19.73;;
56285;SDS011;42191;47.562;9.686;2022-08-21T14:52:43;20.65;;;19.35;;
56285;SDS011;42191;47.562;9.686;2022-08-21T14:55:11;20.60;;;19.40;;
56285;SDS011;42191;47.562;9.686;2022-08-21T14:57:49;21.10;;;19.80;;
56285;SDS011;42191;47.562;9.686;2022-08-21T15:00:18;21.58;;;20.05;;
56285;SDS011;42191;47.562;9.686;2022-08-21T15:02:47;21.20;;;20.00;;
56285;SDS011;42191;47.562;9.686;2022-08-21T15:05:14;21.45;;;20.15;;
56285;SDS011;42191;47.562;9.686;2022-08-21T15:07:40;21.48;;;20.17;;
56285;SDS011;42191;47.562;9.686;2022-08-21T15:10:06;21.67;;;20.38;;
56285;SDS011;42191;47.562;9.686;2022-08-21T15:12:33;20.92;;;19.73;;
56285;SDS011;42191;47.562;9.686;2022-08-21T15:15:00;21.30;;;20.00;;
56285;SDS011;42191;47.562;9.686;2022-08-21T15:17:26;21.50;;;20.20;;
56285;SDS011;42191;47.562;9.686;2022-08-21T15:19:52;21.00;;;19.77;;
56285;SDS011;42191;47.562;9.686;2022-08-21T15:22:18;21.60;;;20.30;;
56285;SDS011;42191;47.562;9.686;2022-08-21T15:24:44;21.88;;;20.58;;
56285;SDS011;42191;47.562;9.686;2022-08-21T15:27:11;21.45;;;20.15;;
56285;SDS011;42191;47.562;9.686;2022-08-21T15:29:38;21.60;;;20.30;;
56285;SDS011;42191;47.562;9.686;2022-08-21T15:32:22;21.80;;;20.40;;
56285;SDS011;42191;47.562;9.686;2022-08-21T15:34:51;21.42;;;20.23;;
56285;SDS011;42191;47.562;9.686;2022-08-21T15:37:18;21.13;;;19.83;;
56285;SDS011;42191;47.562;9.686;2022-08-21T15:39:46;21.48;;;20.17;;
56285;SDS011;42191;47.562;9.686;2022-08-21T15:42:12;21.55;;;20.02;;
56285;SDS011;42191;47.562;9.686;2022-08-21T15:44:38;21.38;;;20.08;;
56285;SDS011;42191;47.562;9.686;2022-08-21T15:47:09;21.58;;;20.17;;
56285;SDS011;42191;47.562;9.686;2022-08-21T15:52:07;21.60;;;20.35;;
56285;SDS011;42191;47.562;9.686;2022-08-21T15:54:33;22.30;;;20.90;;
56285;SDS011;42191;47.562;9.686;2022-08-21T15:56:59;22.20;;;20.80;;
56285;SDS011;42191;47.562;9.686;2022-08-21T15:59:25;22.38;;;20.80;;
56285;SDS011;42191;47.562;9.686;2022-08-21T16:01:52;22.50;;;21.10;;